createdAt,value
2023-01-03T00:02:34.945Z,75.69
2023-01-03T00:07:34.750Z,76.09
2023-01-03T00:12:31.730Z,76.60
2023-01-03T00:17:28.611Z,76.26
2023-01-03T00:22:25.848Z,76.54
2023-01-03T00:27:22.437Z,76.22
2023-01-03T00:32:19.066Z,75.21
2023-01-03T00:37:15.648Z,76.42
2023-01-03T00:42:12.991Z,76.16
2023-01-03T00:47:09.587Z,77.56
2023-01-03T00:52:07.969Z,79.14
2023-01-03T00:57:04.524Z,78.69
2023-01-03T01:02:01.871Z,78.64
2023-01-03T01:06:59.834Z,76.40
2023-01-03T01:11:56.654Z,78.36
2023-01-03T01:16:54.329Z,80.42
2023-01-03T01:21:51.861Z,79.84
2023-01-03T01:26:48.776Z,78.59
2023-01-03T01:31:46.053Z,77.99
2023-01-03T01:36:44.060Z,77.66
2023-01-03T01:42:19.676Z,78.05
2023-01-03T01:47:22.018Z,79.25
2023-01-03T01:52:20.105Z,78.57
2023-01-03T01:57:19.878Z,79.21
2023-01-03T02:02:20.406Z,78.38
2023-01-03T02:07:20.034Z,79.51
2023-01-03T02:12:40.815Z,78.39
2023-01-03T02:17:41.032Z,77.41
2023-01-03T02:23:02.382Z,76.65
2023-01-03T02:28:29.882Z,77.63
2023-01-03T02:33:32.622Z,77.48
2023-01-03T02:38:34.209Z,77.81
2023-01-03T02:43:32.711Z,77.82
2023-01-03T02:48:40.089Z,78.47
2023-01-03T02:53:39.001Z,77.61
2023-01-03T02:58:37.776Z,76.25
2023-01-03T03:03:36.444Z,74.99
2023-01-03T03:08:33.106Z,75.54
2023-01-03T03:13:34.394Z,75.75
2023-01-03T03:18:34.613Z,75.62
2023-01-03T03:23:53.528Z,76.09
2023-01-03T03:28:53.569Z,75.99
2023-01-03T03:33:51.756Z,75.62
2023-01-03T03:38:49.290Z,75.35
2023-01-03T03:44:23.727Z,75.68
2023-01-03T03:49:38.422Z,75.97
2023-01-03T03:54:38.556Z,76.71
2023-01-03T03:59:35.320Z,76.79
2023-01-03T04:04:35.548Z,76.68
2023-01-03T04:09:32.475Z,76.63
2023-01-03T04:14:29.869Z,76.29
2023-01-03T04:19:26.473Z,76.32
2023-01-03T04:24:23.072Z,77.38
2023-01-03T04:29:19.677Z,76.85
2023-01-03T04:34:16.899Z,77.64
2023-01-03T04:39:14.032Z,77.75
2023-01-03T04:44:10.607Z,78.67
2023-01-03T04:49:08.293Z,78.70
2023-01-03T04:54:05.925Z,79.48
2023-01-03T04:59:02.765Z,79.52
2023-01-03T05:04:00.013Z,81.18
2023-01-03T05:08:56.590Z,78.33
2023-01-03T05:13:54.266Z,77.52
2023-01-03T05:18:51.129Z,78.74
2023-01-03T05:24:05.590Z,79.77
2023-01-03T05:29:02.938Z,79.62
2023-01-03T05:34:02.442Z,81.55
2023-01-03T05:38:59.214Z,80.87
2023-01-03T05:43:55.766Z,81.62
2023-01-03T05:48:53.119Z,80.82
2023-01-03T05:53:50.745Z,80.63
2023-01-03T05:58:47.297Z,81.21
2023-01-03T06:03:44.586Z,82.33
2023-01-03T06:08:41.993Z,81.92
2023-01-03T06:13:38.799Z,82.80
2023-01-03T06:18:35.601Z,82.59
2023-01-03T06:23:32.206Z,82.60
2023-01-03T06:28:29.653Z,81.22
2023-01-03T06:33:26.283Z,79.71
2023-01-03T06:38:22.961Z,79.20
2023-01-03T06:43:19.748Z,79.36
2023-01-03T06:48:35.260Z,80.83
2023-01-03T06:53:35.239Z,81.68
2023-01-03T06:58:32.149Z,81.15
2023-01-03T07:03:29.376Z,79.54
2023-01-03T07:08:26.086Z,78.18
2023-01-03T07:13:42.834Z,76.95
2023-01-03T07:18:40.435Z,78.53
2023-01-03T07:23:44.503Z,78.16
2023-01-03T07:28:42.029Z,78.31
2023-01-03T07:46:12.700Z,78.17
2023-01-03T07:51:31.999Z,79.46
2023-01-03T07:56:47.333Z,78.97
2023-01-03T08:01:54.575Z,78.39
2023-01-03T08:07:04.912Z,78.95
2023-01-03T08:18:18.093Z,78.10
2023-01-03T08:23:22.327Z,79.49
2023-01-03T08:46:15.807Z,76.81
2023-01-03T09:10:47.042Z,74.68
2023-01-03T09:15:44.740Z,73.61
2023-01-03T09:20:45.090Z,74.33
2023-01-03T09:25:42.139Z,73.77
2023-01-03T09:30:41.222Z,73.30
2023-01-03T09:35:38.385Z,73.91
2023-01-03T09:40:50.814Z,72.64
2023-01-03T09:45:50.728Z,72.40
2023-01-03T09:56:32.246Z,71.84
2023-01-03T10:01:57.105Z,70.19
2023-01-03T10:06:59.916Z,70.51
2023-01-03T10:12:05.141Z,69.43
2023-01-03T10:17:09.581Z,68.05
2023-01-03T10:22:09.052Z,67.76
2023-01-03T10:27:08.624Z,66.56
2023-01-03T10:32:14.860Z,65.41
2023-01-03T10:37:16.920Z,65.09
2023-01-03T10:42:19.741Z,64.42
2023-01-03T10:47:20.990Z,63.72
2023-01-03T10:52:20.040Z,62.82
2023-01-03T10:57:41.848Z,60.69
2023-01-03T11:02:44.554Z,60.87
2023-01-03T11:07:53.417Z,60.74
2023-01-03T11:12:50.959Z,61.62
2023-01-03T11:17:57.123Z,61.80
2023-01-03T11:23:03.182Z,61.57
2023-01-03T11:28:17.975Z,61.56
2023-01-03T11:33:29.970Z,63.01
2023-01-03T11:38:57.830Z,63.02
2023-01-03T11:44:17.975Z,61.96
2023-01-03T11:55:48.628Z,62.63
2023-01-03T12:00:51.539Z,61.71
2023-01-03T12:05:54.062Z,60.06
2023-01-03T12:10:59.785Z,60.31
2023-01-03T12:16:02.348Z,60.30
2023-01-03T12:21:06.281Z,60.36
2023-01-03T12:26:08.677Z,59.93
2023-01-03T12:31:10.832Z,60.41
2023-01-03T12:36:30.266Z,60.25
2023-01-03T12:41:33.892Z,59.16
2023-01-03T12:46:33.394Z,59.58
2023-01-03T12:51:33.386Z,60.23
2023-01-03T12:56:47.915Z,60.19
2023-01-03T13:01:46.369Z,60.30
2023-01-03T13:06:48.871Z,60.79
2023-01-03T13:11:50.141Z,60.59
2023-01-03T13:16:48.227Z,61.44
2023-01-03T13:22:29.705Z,61.36
2023-01-03T13:27:39.498Z,61.77
2023-01-03T13:33:11.336Z,62.01
2023-01-03T13:38:24.431Z,61.77
2023-01-03T13:43:23.785Z,62.38
2023-01-03T13:48:29.404Z,62.75
2023-01-03T13:53:34.761Z,62.96
2023-01-03T13:58:39.099Z,63.17
2023-01-03T14:03:49.255Z,63.78
2023-01-03T14:09:23.404Z,63.98
2023-01-03T14:14:31.922Z,64.47
2023-01-03T14:19:52.529Z,64.80
2023-01-03T14:25:01.592Z,65.70
2023-01-03T14:30:02.719Z,65.34
2023-01-03T14:34:59.815Z,65.80
2023-01-03T14:40:21.008Z,66.18
2023-01-03T14:45:33.620Z,66.57
2023-01-03T14:50:41.359Z,66.98
2023-01-03T14:55:49.968Z,66.40
2023-01-03T15:01:01.231Z,67.31
2023-01-03T15:05:58.984Z,67.75
2023-01-03T15:10:59.179Z,67.97
2023-01-03T15:15:59.042Z,67.50
2023-01-03T15:20:56.933Z,68.00
2023-01-03T15:25:53.495Z,67.52
2023-01-03T15:30:51.899Z,67.59
2023-01-03T15:35:49.863Z,67.02
2023-01-03T15:40:48.597Z,66.85
2023-01-03T15:45:48.212Z,66.81
2023-01-03T15:50:48.861Z,66.90
2023-01-03T15:55:45.616Z,67.52
2023-01-03T16:00:42.316Z,68.38
2023-01-03T16:05:39.041Z,68.16
2023-01-03T16:10:36.753Z,68.02
2023-01-03T16:15:33.246Z,68.34
2023-01-03T16:20:29.893Z,68.08
2023-01-03T16:25:26.524Z,68.03
2023-01-03T16:30:23.875Z,67.64
2023-01-03T16:35:20.967Z,67.96
2023-01-03T16:40:19.370Z,67.51
2023-01-03T16:45:16.847Z,67.60
2023-01-03T16:50:15.414Z,67.62
2023-01-03T16:55:15.587Z,67.72
2023-01-03T17:00:17.529Z,67.54
2023-01-03T17:05:17.998Z,67.53
2023-01-03T17:10:22.282Z,67.07
2023-01-03T17:15:18.861Z,66.40
2023-01-03T17:20:21.688Z,66.59
2023-01-03T17:25:25.642Z,66.63
2023-01-03T17:30:28.056Z,66.52
2023-01-03T17:35:44.190Z,66.85
2023-01-03T17:40:42.644Z,68.57
2023-01-03T17:46:00.317Z,69.11
2023-01-03T17:51:04.603Z,68.64
2023-01-03T17:56:04.853Z,67.96
2023-01-03T18:01:07.483Z,67.68
2023-01-03T18:06:12.278Z,68.02
2023-01-03T18:11:14.534Z,68.00
2023-01-03T18:16:16.984Z,68.15
2023-01-03T18:21:16.574Z,68.63
2023-01-03T18:26:16.049Z,68.73
2023-01-03T18:31:16.860Z,68.55
2023-01-03T18:36:24.638Z,68.57
2023-01-03T18:41:22.995Z,68.48
2023-01-03T18:46:20.025Z,69.19
2023-01-03T18:51:18.137Z,69.95
2023-01-03T18:56:25.033Z,71.42
2023-01-03T19:01:23.665Z,72.99
2023-01-03T19:06:22.039Z,73.44
2023-01-03T19:17:42.553Z,75.20
2023-01-03T19:22:40.071Z,75.07
2023-01-03T19:27:37.909Z,76.84
2023-01-03T19:32:34.929Z,76.06
2023-01-03T19:37:32.135Z,76.39
2023-01-03T19:42:46.097Z,76.05
2023-01-03T19:47:42.971Z,75.54
2023-01-03T19:52:40.249Z,75.13
2023-01-03T19:57:46.935Z,75.41
2023-01-03T20:02:47.147Z,75.50
2023-01-03T20:07:45.437Z,74.20
2023-01-03T20:12:42.425Z,73.07
2023-01-03T20:17:43.075Z,71.70
2023-01-03T20:28:00.904Z,70.01
2023-01-03T20:32:57.777Z,69.60
2023-01-03T20:37:55.408Z,68.50
2023-01-03T20:42:52.614Z,68.58
2023-01-03T20:47:51.690Z,68.65
2023-01-03T20:52:48.223Z,69.32
2023-01-03T20:57:45.151Z,69.81
2023-01-03T21:02:42.374Z,69.97
2023-01-03T21:07:58.161Z,69.29
2023-01-03T21:12:54.770Z,69.21
2023-01-03T21:17:51.536Z,69.19
2023-01-03T21:22:48.951Z,69.92
2023-01-03T21:27:45.903Z,71.24
2023-01-03T21:32:42.868Z,72.62
2023-01-03T21:37:39.473Z,72.88
2023-01-03T21:42:58.427Z,72.47
2023-01-03T21:47:59.960Z,70.94
2023-01-03T21:52:56.875Z,69.81
2023-01-03T21:57:54.044Z,68.99
2023-01-03T22:03:08.718Z,73.69
2023-01-03T22:08:06.042Z,77.05
2023-01-03T22:13:05.038Z,78.84
2023-01-03T22:18:01.636Z,79.66
2023-01-03T22:22:59.017Z,78.40
2023-01-03T22:27:56.796Z,78.69
2023-01-03T22:32:55.546Z,80.41
2023-01-03T22:37:52.162Z,78.02
2023-01-03T22:42:48.778Z,76.45
2023-01-03T22:47:45.713Z,74.68
2023-01-03T22:52:42.939Z,72.86
2023-01-03T22:57:39.492Z,72.64
2023-01-03T23:02:41.536Z,71.49
2023-01-03T23:07:46.385Z,70.49
2023-01-03T23:12:59.151Z,70.43
2023-01-03T23:17:56.200Z,69.35
2023-01-03T23:22:59.182Z,69.13
2023-01-03T23:27:57.924Z,68.95
2023-01-03T23:32:54.582Z,68.20
2023-01-03T23:37:51.267Z,68.66
2023-01-03T23:42:47.933Z,67.81
2023-01-03T23:47:45.456Z,68.84
2023-01-03T23:52:42.167Z,74.17
2023-01-03T23:57:39.137Z,75.40
